Cherokee Village, Louisiana
Current Conditions -  °F | °C
As of 12:53 PM on Friday 21 Nov 2014 (Local Time) from KAEX Reporting Station
Clear Clear  
Wind Chill: 71°   Ceiling: Unl
Heat Index: 71°   Visibility: 10mi
Dew Point: 46°   Wind: 20mph
Humidity: 41%   Direction: 120°ESE
Pressure: 30.19"   Gusts: NA
Location:  31.2655°N, 92.4705°W
Report Text: KAEX 211853Z 12017KT 10SM CLR 22/08 A3019 RMK AO2 RAB03E38 SLP227 P0000 T02170078
Loading
Personal Weather Stations






























Interactive Weather Map New forecast layout! Learn more

10-Day Weather Forecast

Advertisements
Track Severe Weather on mobile